sensor_id;sensor_type;location;lat;lon;timestamp;temperature;humidity
69324;DHT22;56470;47.350;8.718;2022-08-23T00:02:03;17.18;75.82
69324;DHT22;56470;47.350;8.718;2022-08-23T00:04:31;17.20;75.79
69324;DHT22;56470;47.350;8.718;2022-08-23T00:06:58;17.09;76.14
69324;DHT22;56470;47.350;8.718;2022-08-23T00:09:25;16.96;76.78
69324;DHT22;56470;47.350;8.718;2022-08-23T00:12:03;16.80;77.14
69324;DHT22;56470;47.350;8.718;2022-08-23T00:14:32;16.61;77.78
69324;DHT22;56470;47.350;8.718;2022-08-23T00:16:59;16.60;78.09
69324;DHT22;56470;47.350;8.718;2022-08-23T00:19:25;16.49;78.30
69324;DHT22;56470;47.350;8.718;2022-08-23T00:21:52;16.27;78.96
69324;DHT22;56470;47.350;8.718;2022-08-23T00:24:19;16.36;78.93
69324;DHT22;56470;47.350;8.718;2022-08-23T00:29:41;16.30;78.17
69324;DHT22;56470;47.350;8.718;2022-08-23T00:32:10;16.36;78.16
69324;DHT22;56470;47.350;8.718;2022-08-23T00:34:36;16.42;78.18
69324;DHT22;56470;47.350;8.718;2022-08-23T00:37:03;16.37;78.13
69324;DHT22;56470;47.350;8.718;2022-08-23T00:39:28;16.32;78.40
69324;DHT22;56470;47.350;8.718;2022-08-23T00:42:01;16.20;78.75
69324;DHT22;56470;47.350;8.718;2022-08-23T00:44:47;16.18;78.28
69324;DHT22;56470;47.350;8.718;2022-08-23T00:47:31;16.15;78.36
69324;DHT22;56470;47.350;8.718;2022-08-23T00:50:22;16.09;79.34
69324;DHT22;56470;47.350;8.718;2022-08-23T00:52:51;16.04;79.60
69324;DHT22;56470;47.350;8.718;2022-08-23T00:55:19;15.95;80.07
69324;DHT22;56470;47.350;8.718;2022-08-23T00:57:45;16.02;79.82
69324;DHT22;56470;47.350;8.718;2022-08-23T01:00:11;16.02;79.98
69324;DHT22;56470;47.350;8.718;2022-08-23T01:02:37;16.02;79.70
69324;DHT22;56470;47.350;8.718;2022-08-23T01:05:03;15.98;79.97
69324;DHT22;56470;47.350;8.718;2022-08-23T01:07:38;15.92;79.69
69324;DHT22;56470;47.350;8.718;2022-08-23T01:10:16;15.88;80.39
69324;DHT22;56470;47.350;8.718;2022-08-23T01:12:48;15.84;80.40
69324;DHT22;56470;47.350;8.718;2022-08-23T01:15:22;15.90;80.11
69324;DHT22;56470;47.350;8.718;2022-08-23T01:17:56;15.95;79.97
69324;DHT22;56470;47.350;8.718;2022-08-23T01:20:24;15.97;79.83
69324;DHT22;56470;47.350;8.718;2022-08-23T01:23:01;15.95;80.22
69324;DHT22;56470;47.350;8.718;2022-08-23T01:25:30;15.92;80.41
69324;DHT22;56470;47.350;8.718;2022-08-23T01:27:57;15.92;80.53
69324;DHT22;56470;47.350;8.718;2022-08-23T01:30:26;15.90;80.73
69324;DHT22;56470;47.350;8.718;2022-08-23T01:32:54;15.77;81.09
69324;DHT22;56470;47.350;8.718;2022-08-23T01:35:29;15.61;81.38
69324;DHT22;56470;47.350;8.718;2022-08-23T01:37:55;15.61;81.34
69324;DHT22;56470;47.350;8.718;2022-08-23T01:40:21;15.58;81.66
69324;DHT22;56470;47.350;8.718;2022-08-23T01:42:46;15.54;82.09
69324;DHT22;56470;47.350;8.718;2022-08-23T01:45:13;15.53;81.70
69324;DHT22;56470;47.350;8.718;2022-08-23T01:47:39;15.53;81.78
69324;DHT22;56470;47.350;8.718;2022-08-23T01:50:06;15.53;82.02
69324;DHT22;56470;47.350;8.718;2022-08-23T01:52:34;15.47;82.02
69324;DHT22;56470;47.350;8.718;2022-08-23T01:54:59;15.47;81.91
69324;DHT22;56470;47.350;8.718;2022-08-23T01:57:26;15.47;81.84
69324;DHT22;56470;47.350;8.718;2022-08-23T01:59:53;15.50;81.37
69324;DHT22;56470;47.350;8.718;2022-08-23T02:02:18;15.57;80.52
69324;DHT22;56470;47.350;8.718;2022-08-23T02:04:44;15.73;79.93
69324;DHT22;56470;47.350;8.718;2022-08-23T02:07:09;15.78;79.99
69324;DHT22;56470;47.350;8.718;2022-08-23T02:09:35;15.81;80.17
69324;DHT22;56470;47.350;8.718;2022-08-23T02:12:00;15.92;80.11
69324;DHT22;56470;47.350;8.718;2022-08-23T02:14:25;15.94;80.14
69324;DHT22;56470;47.350;8.718;2022-08-23T02:16:52;15.87;80.69
69324;DHT22;56470;47.350;8.718;2022-08-23T02:19:18;15.81;80.61
69324;DHT22;56470;47.350;8.718;2022-08-23T02:21:44;15.80;80.94
69324;DHT22;56470;47.350;8.718;2022-08-23T02:24:17;15.65;81.57
69324;DHT22;56470;47.350;8.718;2022-08-23T02:26:46;15.58;81.53
69324;DHT22;56470;47.350;8.718;2022-08-23T02:29:12;15.54;81.44
69324;DHT22;56470;47.350;8.718;2022-08-23T02:31:39;15.50;81.81
69324;DHT22;56470;47.350;8.718;2022-08-23T02:34:04;15.51;81.91
69324;DHT22;56470;47.350;8.718;2022-08-23T02:36:30;15.47;82.18
69324;DHT22;56470;47.350;8.718;2022-08-23T02:38:56;15.36;82.69
69324;DHT22;56470;47.350;8.718;2022-08-23T02:41:21;15.39;82.45
69324;DHT22;56470;47.350;8.718;2022-08-23T02:43:50;15.40;82.33
69324;DHT22;56470;47.350;8.718;2022-08-23T02:46:16;15.37;82.28
69324;DHT22;56470;47.350;8.718;2022-08-23T02:48:41;15.40;82.36
69324;DHT22;56470;47.350;8.718;2022-08-23T02:51:07;15.50;82.15
69324;DHT22;56470;47.350;8.718;2022-08-23T02:53:34;15.64;81.65
69324;DHT22;56470;47.350;8.718;2022-08-23T02:56:01;15.67;81.40
69324;DHT22;56470;47.350;8.718;2022-08-23T02:58:26;15.63;81.58
69324;DHT22;56470;47.350;8.718;2022-08-23T03:00:52;15.56;81.93
69324;DHT22;56470;47.350;8.718;2022-08-23T03:03:18;15.43;82.84
69324;DHT22;56470;47.350;8.718;2022-08-23T03:05:44;15.30;83.49
69324;DHT22;56470;47.350;8.718;2022-08-23T03:08:10;15.22;83.75
69324;DHT22;56470;47.350;8.718;2022-08-23T03:10:36;15.12;84.37
69324;DHT22;56470;47.350;8.718;2022-08-23T03:13:06;15.06;84.62
69324;DHT22;56470;47.350;8.718;2022-08-23T03:15:31;15.02;84.71
69324;DHT22;56470;47.350;8.718;2022-08-23T03:17:57;15.03;84.80
69324;DHT22;56470;47.350;8.718;2022-08-23T03:20:22;14.99;85.10
69324;DHT22;56470;47.350;8.718;2022-08-23T03:22:47;15.02;85.09
69324;DHT22;56470;47.350;8.718;2022-08-23T03:25:12;15.09;84.85
69324;DHT22;56470;47.350;8.718;2022-08-23T03:27:38;15.09;84.60
69324;DHT22;56470;47.350;8.718;2022-08-23T03:30:05;15.16;84.32
69324;DHT22;56470;47.350;8.718;2022-08-23T03:32:31;15.22;83.87
69324;DHT22;56470;47.350;8.718;2022-08-23T03:34:56;15.20;83.98
69324;DHT22;56470;47.350;8.718;2022-08-23T03:37:21;15.20;83.94
69324;DHT22;56470;47.350;8.718;2022-08-23T03:39:47;15.12;84.10
69324;DHT22;56470;47.350;8.718;2022-08-23T03:42:12;15.11;84.23
69324;DHT22;56470;47.350;8.718;2022-08-23T03:44:38;15.11;84.02
69324;DHT22;56470;47.350;8.718;2022-08-23T03:47:04;15.06;84.08
69324;DHT22;56470;47.350;8.718;2022-08-23T03:49:30;14.98;84.40
69324;DHT22;56470;47.350;8.718;2022-08-23T03:51:56;14.91;84.68
69324;DHT22;56470;47.350;8.718;2022-08-23T03:54:22;14.98;84.48
69324;DHT22;56470;47.350;8.718;2022-08-23T03:56:56;14.85;84.90
69324;DHT22;56470;47.350;8.718;2022-08-23T03:59:24;14.87;85.05
69324;DHT22;56470;47.350;8.718;2022-08-23T04:01:50;14.85;85.15
69324;DHT22;56470;47.350;8.718;2022-08-23T04:04:16;14.75;85.56
69324;DHT22;56470;47.350;8.718;2022-08-23T04:06:42;14.78;85.38
69324;DHT22;56470;47.350;8.718;2022-08-23T04:09:10;14.78;85.43
69324;DHT22;56470;47.350;8.718;2022-08-23T04:11:35;14.70;85.66
69324;DHT22;56470;47.350;8.718;2022-08-23T04:14:01;14.63;85.79
69324;DHT22;56470;47.350;8.718;2022-08-23T04:16:26;14.77;85.37
69324;DHT22;56470;47.350;8.718;2022-08-23T04:18:53;14.83;84.88
69324;DHT22;56470;47.350;8.718;2022-08-23T04:21:20;14.91;84.63
69324;DHT22;56470;47.350;8.718;2022-08-23T04:23:46;14.94;84.33
69324;DHT22;56470;47.350;8.718;2022-08-23T04:26:12;14.98;83.97
69324;DHT22;56470;47.350;8.718;2022-08-23T04:28:37;14.84;84.55
69324;DHT22;56470;47.350;8.718;2022-08-23T04:31:03;14.89;84.14
69324;DHT22;56470;47.350;8.718;2022-08-23T04:33:29;14.84;84.39
69324;DHT22;56470;47.350;8.718;2022-08-23T04:36:01;14.88;84.19
69324;DHT22;56470;47.350;8.718;2022-08-23T04:38:27;14.77;84.45
69324;DHT22;56470;47.350;8.718;2022-08-23T04:40:53;14.75;84.18
69324;DHT22;56470;47.350;8.718;2022-08-23T04:43:38;14.92;83.44
69324;DHT22;56470;47.350;8.718;2022-08-23T04:46:03;15.02;83.11
69324;DHT22;56470;47.350;8.718;2022-08-23T04:48:30;15.12;82.91
69324;DHT22;56470;47.350;8.718;2022-08-23T04:50:56;15.26;82.43
69324;DHT22;56470;47.350;8.718;2022-08-23T04:53:22;15.42;81.52
69324;DHT22;56470;47.350;8.718;2022-08-23T04:55:48;15.39;81.55
69324;DHT22;56470;47.350;8.718;2022-08-23T04:58:16;15.39;81.44
69324;DHT22;56470;47.350;8.718;2022-08-23T05:00:42;15.36;81.62
69324;DHT22;56470;47.350;8.718;2022-08-23T05:03:07;15.30;81.82
69324;DHT22;56470;47.350;8.718;2022-08-23T05:05:33;15.29;81.86
69324;DHT22;56470;47.350;8.718;2022-08-23T05:07:58;15.32;81.79
69324;DHT22;56470;47.350;8.718;2022-08-23T05:10:24;15.43;81.24
69324;DHT22;56470;47.350;8.718;2022-08-23T05:12:49;15.56;80.88
69324;DHT22;56470;47.350;8.718;2022-08-23T05:15:14;15.51;80.87
69324;DHT22;56470;47.350;8.718;2022-08-23T05:17:40;15.88;79.91
69324;DHT22;56470;47.350;8.718;2022-08-23T05:20:07;16.25;78.54
69324;DHT22;56470;47.350;8.718;2022-08-23T05:22:36;16.72;77.14
69324;DHT22;56470;47.350;8.718;2022-08-23T05:25:03;17.39;74.99
69324;DHT22;56470;47.350;8.718;2022-08-23T05:27:28;17.74;73.04
69324;DHT22;56470;47.350;8.718;2022-08-23T05:29:54;18.06;72.06
69324;DHT22;56470;47.350;8.718;2022-08-23T05:32:20;18.26;71.09
69324;DHT22;56470;47.350;8.718;2022-08-23T05:34:46;18.75;69.07
69324;DHT22;56470;47.350;8.718;2022-08-23T05:37:12;19.40;66.95
69324;DHT22;56470;47.350;8.718;2022-08-23T05:39:37;19.94;65.08
69324;DHT22;56470;47.350;8.718;2022-08-23T05:42:04;20.22;63.89
69324;DHT22;56470;47.350;8.718;2022-08-23T05:44:30;20.64;62.49
69324;DHT22;56470;47.350;8.718;2022-08-23T05:46:55;21.15;61.06
69324;DHT22;56470;47.350;8.718;2022-08-23T05:49:21;21.55;59.56
69324;DHT22;56470;47.350;8.718;2022-08-23T05:51:46;21.78;58.89
69324;DHT22;56470;47.350;8.718;2022-08-23T05:54:11;22.08;57.73
69324;DHT22;56470;47.350;8.718;2022-08-23T05:56:39;22.94;55.96
69324;DHT22;56470;47.350;8.718;2022-08-23T05:59:08;22.68;55.70
69324;DHT22;56470;47.350;8.718;2022-08-23T06:01:35;23.24;54.37
69324;DHT22;56470;47.350;8.718;2022-08-23T06:04:03;22.84;54.30
69324;DHT22;56470;47.350;8.718;2022-08-23T06:06:30;23.30;53.57
69324;DHT22;56470;47.350;8.718;2022-08-23T06:08:56;22.83;55.58
69324;DHT22;56470;47.350;8.718;2022-08-23T06:11:25;22.78;55.36
69324;DHT22;56470;47.350;8.718;2022-08-23T06:13:53;23.09;55.07
69324;DHT22;56470;47.350;8.718;2022-08-23T06:16:24;23.26;54.55
69324;DHT22;56470;47.350;8.718;2022-08-23T06:18:50;24.08;51.97
69324;DHT22;56470;47.350;8.718;2022-08-23T06:21:16;24.98;49.78
69324;DHT22;56470;47.350;8.718;2022-08-23T06:23:42;24.80;50.22
69324;DHT22;56470;47.350;8.718;2022-08-23T06:26:09;24.08;51.48
69324;DHT22;56470;47.350;8.718;2022-08-23T06:28:35;24.15;51.90
69324;DHT22;56470;47.350;8.718;2022-08-23T06:31:00;24.22;52.14
69324;DHT22;56470;47.350;8.718;2022-08-23T06:33:26;24.50;51.00
69324;DHT22;56470;47.350;8.718;2022-08-23T06:36:04;23.51;53.42
69324;DHT22;56470;47.350;8.718;2022-08-23T06:38:30;23.70;53.57
69324;DHT22;56470;47.350;8.718;2022-08-23T06:41:04;23.88;53.03
69324;DHT22;56470;47.350;8.718;2022-08-23T06:43:30;24.05;53.07
69324;DHT22;56470;47.350;8.718;2022-08-23T06:46:09;25.07;50.00
69324;DHT22;56470;47.350;8.718;2022-08-23T06:48:35;25.33;49.47
69324;DHT22;56470;47.350;8.718;2022-08-23T06:51:01;25.59;49.09
69324;DHT22;56470;47.350;8.718;2022-08-23T06:53:26;25.23;49.91
69324;DHT22;56470;47.350;8.718;2022-08-23T06:55:53;25.75;48.59
69324;DHT22;56470;47.350;8.718;2022-08-23T06:58:19;25.64;48.47
69324;DHT22;56470;47.350;8.718;2022-08-23T07:00:44;26.24;47.15
69324;DHT22;56470;47.350;8.718;2022-08-23T07:03:09;26.59;46.67
69324;DHT22;56470;47.350;8.718;2022-08-23T07:05:35;26.46;46.56
69324;DHT22;56470;47.350;8.718;2022-08-23T07:08:00;27.35;44.68
69324;DHT22;56470;47.350;8.718;2022-08-23T07:10:27;27.21;44.81
69324;DHT22;56470;47.350;8.718;2022-08-23T07:12:52;27.39;44.12
69324;DHT22;56470;47.350;8.718;2022-08-23T07:15:18;26.76;45.47
69324;DHT22;56470;47.350;8.718;2022-08-23T07:17:43;26.65;45.49
69324;DHT22;56470;47.350;8.718;2022-08-23T07:20:09;27.16;44.23
69324;DHT22;56470;47.350;8.718;2022-08-23T07:22:34;27.23;44.52
69324;DHT22;56470;47.350;8.718;2022-08-23T07:24:59;27.51;43.78
69324;DHT22;56470;47.350;8.718;2022-08-23T07:27:26;27.14;44.00
69324;DHT22;56470;47.350;8.718;2022-08-23T07:29:51;27.57;43.38
69324;DHT22;56470;47.350;8.718;2022-08-23T07:32:16;28.09;42.44
69324;DHT22;56470;47.350;8.718;2022-08-23T07:34:42;28.74;40.86
69324;DHT22;56470;47.350;8.718;2022-08-23T07:37:08;30.29;37.56
69324;DHT22;56470;47.350;8.718;2022-08-23T07:39:33;28.91;39.58
69324;DHT22;56470;47.350;8.718;2022-08-23T07:42:00;28.31;40.62
69324;DHT22;56470;47.350;8.718;2022-08-23T07:44:28;27.08;43.63
69324;DHT22;56470;47.350;8.718;2022-08-23T07:46:55;26.74;44.53
69324;DHT22;56470;47.350;8.718;2022-08-23T07:49:21;27.68;41.88
69324;DHT22;56470;47.350;8.718;2022-08-23T07:51:48;28.31;40.96
69324;DHT22;56470;47.350;8.718;2022-08-23T07:54:15;29.01;39.63
69324;DHT22;56470;47.350;8.718;2022-08-23T07:56:42;30.08;37.74
69324;DHT22;56470;47.350;8.718;2022-08-23T07:59:08;29.77;38.22
69324;DHT22;56470;47.350;8.718;2022-08-23T08:01:34;30.09;37.07
69324;DHT22;56470;47.350;8.718;2022-08-23T08:04:01;26.86;43.06
69324;DHT22;56470;47.350;8.718;2022-08-23T08:08:57;28.90;40.02
69324;DHT22;56470;47.350;8.718;2022-08-23T08:11:24;29.69;37.97
69324;DHT22;56470;47.350;8.718;2022-08-23T08:13:52;28.91;39.41
69324;DHT22;56470;47.350;8.718;2022-08-23T08:16:26;29.80;38.14
69324;DHT22;56470;47.350;8.718;2022-08-23T08:18:53;30.69;36.91
69324;DHT22;56470;47.350;8.718;2022-08-23T08:21:19;30.55;37.09
69324;DHT22;56470;47.350;8.718;2022-08-23T08:23:45;30.42;37.47
69324;DHT22;56470;47.350;8.718;2022-08-23T08:26:10;30.63;37.32
69324;DHT22;56470;47.350;8.718;2022-08-23T08:28:37;30.92;36.62
69324;DHT22;56470;47.350;8.718;2022-08-23T08:31:03;31.01;36.84
69324;DHT22;56470;47.350;8.718;2022-08-23T08:33:29;31.08;36.79
69324;DHT22;56470;47.350;8.718;2022-08-23T08:35:56;30.19;38.12
69324;DHT22;56470;47.350;8.718;2022-08-23T08:38:23;29.92;38.86
69324;DHT22;56470;47.350;8.718;2022-08-23T08:40:56;30.37;38.02
69324;DHT22;56470;47.350;8.718;2022-08-23T08:49:01;30.43;37.71
69324;DHT22;56470;47.350;8.718;2022-08-23T08:51:50;30.01;38.91
69324;DHT22;56470;47.350;8.718;2022-08-23T08:54:21;31.63;36.20
69324;DHT22;56470;47.350;8.718;2022-08-23T08:56:52;31.90;35.94
69324;DHT22;56470;47.350;8.718;2022-08-23T08:59:22;32.21;35.27
69324;DHT22;56470;47.350;8.718;2022-08-23T09:01:48;31.45;36.61
69324;DHT22;56470;47.350;8.718;2022-08-23T09:04:14;32.08;35.75
69324;DHT22;56470;47.350;8.718;2022-08-23T09:07:21;32.17;35.18
69324;DHT22;56470;47.350;8.718;2022-08-23T09:10:02;31.60;36.50
69324;DHT22;56470;47.350;8.718;2022-08-23T09:17:50;32.55;34.78
69324;DHT22;56470;47.350;8.718;2022-08-23T09:20:18;32.57;34.34
69324;DHT22;56470;47.350;8.718;2022-08-23T09:22:48;31.22;36.38
69324;DHT22;56470;47.350;8.718;2022-08-23T09:25:16;30.26;37.88
69324;DHT22;56470;47.350;8.718;2022-08-23T09:27:42;30.21;38.58
69324;DHT22;56470;47.350;8.718;2022-08-23T09:30:12;30.50;37.96
69324;DHT22;56470;47.350;8.718;2022-08-23T09:32:41;30.61;37.83
69324;DHT22;56470;47.350;8.718;2022-08-23T09:37:47;31.10;37.38
69324;DHT22;56470;47.350;8.718;2022-08-23T09:42:42;30.98;36.98
69324;DHT22;56470;47.350;8.718;2022-08-23T09:45:32;31.83;35.79
69324;DHT22;56470;47.350;8.718;2022-08-23T09:47:57;31.87;36.17
69324;DHT22;56470;47.350;8.718;2022-08-23T09:50:30;32.18;35.00
69324;DHT22;56470;47.350;8.718;2022-08-23T09:55:33;31.88;34.21
69324;DHT22;56470;47.350;8.718;2022-08-23T09:58:16;32.04;33.99
69324;DHT22;56470;47.350;8.718;2022-08-23T10:00:43;30.87;37.41
69324;DHT22;56470;47.350;8.718;2022-08-23T10:03:27;30.59;38.61
69324;DHT22;56470;47.350;8.718;2022-08-23T10:05:55;31.36;36.36
69324;DHT22;56470;47.350;8.718;2022-08-23T10:08:32;31.77;36.63
69324;DHT22;56470;47.350;8.718;2022-08-23T10:11:06;30.91;37.95
69324;DHT22;56470;47.350;8.718;2022-08-23T10:13:36;31.50;36.64
69324;DHT22;56470;47.350;8.718;2022-08-23T10:18:52;31.74;36.27
69324;DHT22;56470;47.350;8.718;2022-08-23T10:21:38;31.46;37.17
69324;DHT22;56470;47.350;8.718;2022-08-23T10:26:45;30.50;36.75
69324;DHT22;56470;47.350;8.718;2022-08-23T10:29:29;30.07;36.13
69324;DHT22;56470;47.350;8.718;2022-08-23T10:35:05;29.42;25.54
69324;DHT22;56470;47.350;8.718;2022-08-23T10:37:53;28.75;24.62
69324;DHT22;56470;47.350;8.718;2022-08-23T10:40:28;28.35;24.87
69324;DHT22;56470;47.350;8.718;2022-08-23T10:43:21;28.67;25.38
69324;DHT22;56470;47.350;8.718;2022-08-23T10:45:51;28.26;26.05
69324;DHT22;56470;47.350;8.718;2022-08-23T10:51:49;28.43;26.32
69324;DHT22;56470;47.350;8.718;2022-08-23T11:04:07;28.01;26.33
69324;DHT22;56470;47.350;8.718;2022-08-23T11:07:34;28.29;27.58
69324;DHT22;56470;47.350;8.718;2022-08-23T11:13:57;28.02;27.92
69324;DHT22;56470;47.350;8.718;2022-08-23T11:16:57;28.13;28.16
69324;DHT22;56470;47.350;8.718;2022-08-23T11:19:48;27.81;27.27
69324;DHT22;56470;47.350;8.718;2022-08-23T11:22:26;27.68;26.49
69324;DHT22;56470;47.350;8.718;2022-08-23T11:27:42;27.32;28.20
69324;DHT22;56470;47.350;8.718;2022-08-23T11:33:23;27.88;28.44
69324;DHT22;56470;47.350;8.718;2022-08-23T11:35:53;28.25;27.79
69324;DHT22;56470;47.350;8.718;2022-08-23T11:44:23;28.02;27.69
69324;DHT22;56470;47.350;8.718;2022-08-23T11:49:30;27.38;27.96
69324;DHT22;56470;47.350;8.718;2022-08-23T11:52:33;27.40;27.01
69324;DHT22;56470;47.350;8.718;2022-08-23T11:58:10;27.23;27.25
69324;DHT22;56470;47.350;8.718;2022-08-23T12:04:05;28.31;27.59
69324;DHT22;56470;47.350;8.718;2022-08-23T12:06:49;27.97;26.89
69324;DHT22;56470;47.350;8.718;2022-08-23T12:14:51;27.59;27.71
69324;DHT22;56470;47.350;8.718;2022-08-23T12:19:47;27.40;28.13
69324;DHT22;56470;47.350;8.718;2022-08-23T12:22:16;27.35;29.50
69324;DHT22;56470;47.350;8.718;2022-08-23T12:24:45;27.22;29.44
69324;DHT22;56470;47.350;8.718;2022-08-23T12:27:41;27.12;28.93
69324;DHT22;56470;47.350;8.718;2022-08-23T12:30:24;27.15;29.75
69324;DHT22;56470;47.350;8.718;2022-08-23T12:35:55;27.08;30.89
69324;DHT22;56470;47.350;8.718;2022-08-23T12:39:02;26.90;31.48
69324;DHT22;56470;47.350;8.718;2022-08-23T12:44:20;26.69;30.81
69324;DHT22;56470;47.350;8.718;2022-08-23T12:46:47;26.73;30.64
69324;DHT22;56470;47.350;8.718;2022-08-23T12:49:29;26.50;30.43
69324;DHT22;56470;47.350;8.718;2022-08-23T12:51:57;26.32;31.34
69324;DHT22;56470;47.350;8.718;2022-08-23T12:54:36;25.99;29.98
69324;DHT22;56470;47.350;8.718;2022-08-23T12:57:02;25.94;31.46
69324;DHT22;56470;47.350;8.718;2022-08-23T13:02:29;25.78;31.92
69324;DHT22;56470;47.350;8.718;2022-08-23T13:05:01;25.95;31.35
69324;DHT22;56470;47.350;8.718;2022-08-23T13:07:27;25.90;31.14
69324;DHT22;56470;47.350;8.718;2022-08-23T13:09:53;25.80;30.78
69324;DHT22;56470;47.350;8.718;2022-08-23T13:12:20;25.97;30.96
69324;DHT22;56470;47.350;8.718;2022-08-23T13:14:49;25.98;31.63
69324;DHT22;56470;47.350;8.718;2022-08-23T13:17:19;26.04;30.67
69324;DHT22;56470;47.350;8.718;2022-08-23T13:19:48;25.91;31.23
69324;DHT22;56470;47.350;8.718;2022-08-23T13:24:56;25.99;30.15
69324;DHT22;56470;47.350;8.718;2022-08-23T13:27:25;25.94;30.12
69324;DHT22;56470;47.350;8.718;2022-08-23T13:32:28;25.74;30.58
69324;DHT22;56470;47.350;8.718;2022-08-23T13:43:11;25.92;30.20
69324;DHT22;56470;47.350;8.718;2022-08-23T13:45:46;25.91;28.84
69324;DHT22;56470;47.350;8.718;2022-08-23T13:48:23;25.97;29.10
69324;DHT22;56470;47.350;8.718;2022-08-23T13:50:49;26.06;28.78
69324;DHT22;56470;47.350;8.718;2022-08-23T13:53:15;26.08;28.95
69324;DHT22;56470;47.350;8.718;2022-08-23T13:55:45;26.18;29.10
69324;DHT22;56470;47.350;8.718;2022-08-23T13:58:17;26.11;29.31
69324;DHT22;56470;47.350;8.718;2022-08-23T14:00:48;26.24;30.41
69324;DHT22;56470;47.350;8.718;2022-08-23T14:03:13;26.18;30.45
69324;DHT22;56470;47.350;8.718;2022-08-23T14:05:39;26.21;30.63
69324;DHT22;56470;47.350;8.718;2022-08-23T14:08:04;26.36;31.21
69324;DHT22;56470;47.350;8.718;2022-08-23T14:10:29;26.12;30.98
69324;DHT22;56470;47.350;8.718;2022-08-23T14:12:55;26.19;31.26
69324;DHT22;56470;47.350;8.718;2022-08-23T14:15:20;26.09;31.70
69324;DHT22;56470;47.350;8.718;2022-08-23T14:17:48;26.15;31.84
69324;DHT22;56470;47.350;8.718;2022-08-23T14:20:17;26.31;32.06
69324;DHT22;56470;47.350;8.718;2022-08-23T14:22:42;26.39;32.20
69324;DHT22;56470;47.350;8.718;2022-08-23T14:25:08;26.14;32.26
69324;DHT22;56470;47.350;8.718;2022-08-23T14:27:40;26.25;32.67
69324;DHT22;56470;47.350;8.718;2022-08-23T14:30:08;26.08;32.09
69324;DHT22;56470;47.350;8.718;2022-08-23T14:32:34;26.18;32.52
69324;DHT22;56470;47.350;8.718;2022-08-23T14:34:59;26.15;32.94
69324;DHT22;56470;47.350;8.718;2022-08-23T14:37:25;26.11;32.39
69324;DHT22;56470;47.350;8.718;2022-08-23T14:39:50;26.09;32.68
69324;DHT22;56470;47.350;8.718;2022-08-23T14:42:19;26.19;33.30
69324;DHT22;56470;47.350;8.718;2022-08-23T14:44:46;26.09;32.98
69324;DHT22;56470;47.350;8.718;2022-08-23T14:47:11;26.09;33.16
69324;DHT22;56470;47.350;8.718;2022-08-23T14:49:36;26.06;33.38
69324;DHT22;56470;47.350;8.718;2022-08-23T14:52:03;26.12;33.05
69324;DHT22;56470;47.350;8.718;2022-08-23T14:54:29;26.06;33.35
69324;DHT22;56470;47.350;8.718;2022-08-23T14:56:54;26.12;33.96
69324;DHT22;56470;47.350;8.718;2022-08-23T14:59:19;25.91;33.59
69324;DHT22;56470;47.350;8.718;2022-08-23T15:01:47;26.08;33.80
69324;DHT22;56470;47.350;8.718;2022-08-23T15:04:16;26.04;34.32
69324;DHT22;56470;47.350;8.718;2022-08-23T15:06:42;25.78;33.84
69324;DHT22;56470;47.350;8.718;2022-08-23T15:09:09;25.94;34.53
69324;DHT22;56470;47.350;8.718;2022-08-23T15:11:34;25.99;34.53
69324;DHT22;56470;47.350;8.718;2022-08-23T15:13:59;26.09;35.04
69324;DHT22;56470;47.350;8.718;2022-08-23T15:16:25;26.18;35.40
69324;DHT22;56470;47.350;8.718;2022-08-23T15:18:51;26.24;35.35
69324;DHT22;56470;47.350;8.718;2022-08-23T15:21:17;26.18;35.69
69324;DHT22;56470;47.350;8.718;2022-08-23T15:23:43;26.26;35.46
69324;DHT22;56470;47.350;8.718;2022-08-23T15:26:09;26.29;35.86
69324;DHT22;56470;47.350;8.718;2022-08-23T15:28:35;26.08;36.01
69324;DHT22;56470;47.350;8.718;2022-08-23T15:31:01;25.98;36.45
69324;DHT22;56470;47.350;8.718;2022-08-23T15:33:27;26.12;36.56
69324;DHT22;56470;47.350;8.718;2022-08-23T15:35:54;26.16;35.96
69324;DHT22;56470;47.350;8.718;2022-08-23T15:38:22;26.06;36.17
69324;DHT22;56470;47.350;8.718;2022-08-23T15:40:50;26.08;36.29
69324;DHT22;56470;47.350;8.718;2022-08-23T15:43:17;26.09;35.52
69324;DHT22;56470;47.350;8.718;2022-08-23T15:45:42;25.94;35.72
69324;DHT22;56470;47.350;8.718;2022-08-23T15:48:25;26.05;36.04
69324;DHT22;56470;47.350;8.718;2022-08-23T15:50:52;26.11;35.81
69324;DHT22;56470;47.350;8.718;2022-08-23T15:53:18;26.01;35.63
69324;DHT22;56470;47.350;8.718;2022-08-23T15:55:45;26.09;36.28
69324;DHT22;56470;47.350;8.718;2022-08-23T15:58:19;26.09;36.24
69324;DHT22;56470;47.350;8.718;2022-08-23T16:00:46;25.99;35.96
69324;DHT22;56470;47.350;8.718;2022-08-23T16:03:12;25.91;35.51
69324;DHT22;56470;47.350;8.718;2022-08-23T16:05:38;25.71;35.55
69324;DHT22;56470;47.350;8.718;2022-08-23T16:08:04;25.78;36.07
69324;DHT22;56470;47.350;8.718;2022-08-23T16:10:30;25.85;36.55
69324;DHT22;56470;47.350;8.718;2022-08-23T16:12:55;25.85;36.45
69324;DHT22;56470;47.350;8.718;2022-08-23T16:15:21;25.85;36.68
69324;DHT22;56470;47.350;8.718;2022-08-23T16:17:46;25.84;36.46
69324;DHT22;56470;47.350;8.718;2022-08-23T16:20:12;25.84;36.99
69324;DHT22;56470;47.350;8.718;2022-08-23T16:22:38;25.82;36.98
69324;DHT22;56470;47.350;8.718;2022-08-23T16:25:04;25.80;36.62
69324;DHT22;56470;47.350;8.718;2022-08-23T16:27:30;25.80;36.99
69324;DHT22;56470;47.350;8.718;2022-08-23T16:29:55;25.82;37.06
69324;DHT22;56470;47.350;8.718;2022-08-23T16:32:21;25.75;36.09
69324;DHT22;56470;47.350;8.718;2022-08-23T16:34:46;25.69;36.54
69324;DHT22;56470;47.350;8.718;2022-08-23T16:37:11;25.56;35.79
69324;DHT22;56470;47.350;8.718;2022-08-23T16:39:38;25.54;35.98
69324;DHT22;56470;47.350;8.718;2022-08-23T16:42:04;25.50;35.45
69324;DHT22;56470;47.350;8.718;2022-08-23T16:44:31;25.46;36.18
69324;DHT22;56470;47.350;8.718;2022-08-23T16:46:57;25.47;35.87
69324;DHT22;56470;47.350;8.718;2022-08-23T16:49:22;25.50;35.78
69324;DHT22;56470;47.350;8.718;2022-08-23T16:51:48;25.40;36.20
69324;DHT22;56470;47.350;8.718;2022-08-23T16:54:14;25.47;36.61
69324;DHT22;56470;47.350;8.718;2022-08-23T16:56:41;25.32;36.42
69324;DHT22;56470;47.350;8.718;2022-08-23T16:59:08;25.39;36.65
69324;DHT22;56470;47.350;8.718;2022-08-23T17:01:47;25.29;35.88
69324;DHT22;56470;47.350;8.718;2022-08-23T17:04:13;25.26;35.63
69324;DHT22;56470;47.350;8.718;2022-08-23T17:06:39;25.29;35.84
69324;DHT22;56470;47.350;8.718;2022-08-23T17:09:05;25.27;35.55
69324;DHT22;56470;47.350;8.718;2022-08-23T17:11:30;25.20;35.75
69324;DHT22;56470;47.350;8.718;2022-08-23T17:13:56;25.25;36.79
69324;DHT22;56470;47.350;8.718;2022-08-23T17:16:23;25.23;36.17
69324;DHT22;56470;47.350;8.718;2022-08-23T17:18:49;25.19;36.71
69324;DHT22;56470;47.350;8.718;2022-08-23T17:21:15;25.16;36.90